createdAt,value
2022-09-15T00:01:40.378Z,24.77
2022-09-15T00:04:08.510Z,24.77
2022-09-15T00:06:36.109Z,24.75
2022-09-15T00:09:04.629Z,24.73
2022-09-15T00:11:34.029Z,24.75
2022-09-15T00:14:06.788Z,24.76
2022-09-15T00:16:34.549Z,24.75
2022-09-15T00:19:02.930Z,24.76
2022-09-15T00:21:32.510Z,24.74
2022-09-15T00:24:01.310Z,24.72
2022-09-15T00:26:30.910Z,24.71
2022-09-15T00:28:59.771Z,24.71
2022-09-15T00:31:30.370Z,24.68
2022-09-15T00:34:00.101Z,24.63
2022-09-15T00:36:27.151Z,24.59
2022-09-15T00:38:54.729Z,24.60
2022-09-15T00:41:24.042Z,24.61
2022-09-15T00:43:54.071Z,24.57
2022-09-15T00:46:23.911Z,24.58
2022-09-15T00:48:58.146Z,24.57
2022-09-15T00:51:33.048Z,24.57
2022-09-15T00:54:04.750Z,24.58
2022-09-15T00:56:36.969Z,24.61
2022-09-15T00:59:11.448Z,24.61
2022-09-15T01:01:43.219Z,24.62
2022-09-15T01:04:14.062Z,24.62
2022-09-15T01:06:47.051Z,24.61
2022-09-15T01:09:21.290Z,24.63
2022-09-15T01:11:48.509Z,24.61
2022-09-15T01:14:15.851Z,24.61
2022-09-15T01:16:55.330Z,24.61
2022-09-15T01:20:05.401Z,24.63
2022-09-15T01:22:43.442Z,24.63
2022-09-15T01:25:27.001Z,24.63
2022-09-15T01:28:19.782Z,24.65
2022-09-15T01:30:56.722Z,24.64
2022-09-15T01:33:37.244Z,24.99
2022-09-15T01:36:14.102Z,25.10
2022-09-15T01:38:54.884Z,25.17
2022-09-15T01:41:28.772Z,25.23
2022-09-15T01:44:02.469Z,25.26
2022-09-15T01:46:35.830Z,25.30
2022-09-15T01:49:06.901Z,25.24
2022-09-15T01:51:36.949Z,25.26
2022-09-15T01:54:06.592Z,25.43
2022-09-15T01:56:33.968Z,25.48
2022-09-15T01:59:01.129Z,25.55
2022-09-15T02:01:37.078Z,25.55
2022-09-15T02:04:13.851Z,25.53
2022-09-15T02:06:50.350Z,25.53
2022-09-15T02:09:24.454Z,25.55
2022-09-15T02:12:03.310Z,25.51
2022-09-15T02:14:46.951Z,25.50
2022-09-15T02:17:19.949Z,25.46
2022-09-15T02:19:54.750Z,25.36
2022-09-15T02:22:26.956Z,25.37
2022-09-15T02:25:00.891Z,25.33
2022-09-15T02:27:33.349Z,25.37
2022-09-15T02:30:06.673Z,25.32
2022-09-15T02:32:40.610Z,25.36
2022-09-15T02:35:11.372Z,25.29
2022-09-15T02:37:38.710Z,25.19
2022-09-15T02:40:07.435Z,25.17
2022-09-15T02:42:34.870Z,25.16
2022-09-15T02:45:02.670Z,25.15
2022-09-15T02:47:30.972Z,25.13
2022-09-15T02:49:59.450Z,25.14
2022-09-15T02:52:26.691Z,25.08
2022-09-15T02:54:53.789Z,25.00
2022-09-15T02:57:20.992Z,25.02
2022-09-15T02:59:48.151Z,24.99
2022-09-15T03:02:15.315Z,25.00
2022-09-15T03:04:42.475Z,24.97
2022-09-15T03:07:11.067Z,24.96
2022-09-15T03:09:38.237Z,24.94
2022-09-15T03:12:05.909Z,24.93
2022-09-15T03:14:33.170Z,25.02
2022-09-15T03:17:00.329Z,24.99
2022-09-15T03:19:27.730Z,25.01
2022-09-15T03:21:54.810Z,25.05
2022-09-15T03:24:23.389Z,24.95
2022-09-15T03:26:50.569Z,25.01
2022-09-15T03:29:17.692Z,25.05
2022-09-15T03:31:44.912Z,25.07
2022-09-15T03:34:12.128Z,25.02
2022-09-15T03:36:39.172Z,25.08
2022-09-15T03:39:06.314Z,25.09
2022-09-15T03:41:34.973Z,25.04
2022-09-15T03:44:02.569Z,24.98
2022-09-15T03:46:29.729Z,25.03
2022-09-15T03:48:56.931Z,25.01
2022-09-15T03:51:24.370Z,24.98
2022-09-15T03:53:51.568Z,25.01
2022-09-15T03:56:23.830Z,24.98
2022-09-15T03:58:52.879Z,25.02
2022-09-15T04:01:21.268Z,24.98
2022-09-15T04:03:51.042Z,24.98
2022-09-15T04:06:20.490Z,24.96
2022-09-15T04:08:47.630Z,24.95
2022-09-15T04:11:15.929Z,24.90
2022-09-15T04:13:44.170Z,24.85
2022-09-15T04:16:15.193Z,24.85
2022-09-15T04:18:43.131Z,24.89
2022-09-15T04:21:13.124Z,24.86
2022-09-15T04:23:40.854Z,24.81
2022-09-15T04:26:11.890Z,24.75
2022-09-15T04:28:39.708Z,24.69
2022-09-15T04:31:10.083Z,24.73
2022-09-15T04:33:40.671Z,24.72
2022-09-15T04:36:11.590Z,24.75
2022-09-15T04:38:38.773Z,24.81
2022-09-15T04:41:07.331Z,24.83
2022-09-15T04:43:35.550Z,24.87
2022-09-15T04:46:02.971Z,24.82
2022-09-15T04:48:31.531Z,24.82
2022-09-15T04:51:03.729Z,24.86
2022-09-15T04:53:31.010Z,24.89
2022-09-15T04:56:06.153Z,24.90
2022-09-15T04:58:36.989Z,24.89
2022-09-15T05:01:08.530Z,24.90
2022-09-15T05:03:36.870Z,24.91
2022-09-15T05:06:08.081Z,24.90
2022-09-15T05:08:35.692Z,24.87
2022-09-15T05:11:05.249Z,24.82
2022-09-15T05:13:33.070Z,24.82
2022-09-15T05:16:04.741Z,24.89
2022-09-15T05:18:32.170Z,24.88
2022-09-15T05:21:00.330Z,24.90
2022-09-15T05:23:29.749Z,24.86
2022-09-15T05:25:58.629Z,24.88
2022-09-15T05:28:26.972Z,24.88
2022-09-15T05:30:55.773Z,24.83
2022-09-15T05:33:24.450Z,24.89
2022-09-15T05:35:52.571Z,24.89
2022-09-15T05:38:20.070Z,24.86
2022-09-15T05:40:48.930Z,24.88
2022-09-15T05:43:16.470Z,24.89
2022-09-15T05:45:43.630Z,24.89
2022-09-15T05:48:11.309Z,24.88
2022-09-15T05:50:39.338Z,25.10
2022-09-15T05:53:07.251Z,25.37
2022-09-15T05:55:37.599Z,25.59
2022-09-15T05:58:06.151Z,25.53
2022-09-15T06:00:33.971Z,25.69
2022-09-15T06:03:01.217Z,25.75
2022-09-15T06:05:28.813Z,25.85
2022-09-15T06:07:56.891Z,25.87
2022-09-15T06:10:24.412Z,25.86
2022-09-15T06:12:54.410Z,25.91
2022-09-15T06:15:23.870Z,25.88
2022-09-15T06:17:51.731Z,25.89
2022-09-15T06:20:18.891Z,25.69
2022-09-15T06:22:46.174Z,25.53
2022-09-15T06:25:14.330Z,25.43
2022-09-15T06:27:41.513Z,25.33
2022-09-15T06:30:10.812Z,25.25
2022-09-15T06:32:39.451Z,25.23
2022-09-15T06:35:06.757Z,25.21
2022-09-15T06:37:33.880Z,25.15
2022-09-15T06:40:01.118Z,25.15
2022-09-15T06:42:28.490Z,25.09
2022-09-15T06:44:55.570Z,25.10
2022-09-15T06:47:22.650Z,25.13
2022-09-15T06:49:51.211Z,25.10
2022-09-15T06:52:18.311Z,25.10
2022-09-15T06:54:45.711Z,25.12
2022-09-15T06:57:12.812Z,25.04
2022-09-15T06:59:39.930Z,25.06
2022-09-15T07:02:09.291Z,25.07
2022-09-15T07:04:36.510Z,25.07
2022-09-15T07:07:05.211Z,25.06
2022-09-15T07:09:32.332Z,25.06
2022-09-15T07:11:59.533Z,24.98
2022-09-15T07:14:26.610Z,25.07
2022-09-15T07:16:53.651Z,25.05
2022-09-15T07:19:20.721Z,25.04
2022-09-15T07:21:47.912Z,25.07
2022-09-15T07:24:16.570Z,25.03
2022-09-15T07:26:44.231Z,25.05
2022-09-15T07:29:11.330Z,25.10
2022-09-15T07:31:39.610Z,25.07
2022-09-15T07:34:07.698Z,25.13
2022-09-15T07:36:35.651Z,25.19
2022-09-15T07:39:04.529Z,25.18
2022-09-15T07:41:33.495Z,25.18
2022-09-15T07:44:01.590Z,25.26
2022-09-15T07:46:32.691Z,25.28
2022-09-15T07:49:00.883Z,25.26
2022-09-15T07:51:28.091Z,25.29
2022-09-15T07:53:55.271Z,25.33
2022-09-15T07:56:23.820Z,25.34
2022-09-15T07:58:52.790Z,25.46
2022-09-15T08:01:21.236Z,25.49
2022-09-15T08:03:50.492Z,25.54
2022-09-15T08:06:19.556Z,25.58
2022-09-15T08:08:46.891Z,25.60
2022-09-15T08:11:18.699Z,25.65
2022-09-15T08:13:46.912Z,25.61
2022-09-15T08:16:17.638Z,25.58
2022-09-15T08:18:45.314Z,25.49
2022-09-15T08:21:14.874Z,25.51
2022-09-15T08:23:42.031Z,25.49
2022-09-15T08:26:14.131Z,25.50
2022-09-15T08:28:42.659Z,25.56
2022-09-15T08:31:12.865Z,25.59
2022-09-15T08:33:45.749Z,25.66
2022-09-15T08:36:13.670Z,25.67
2022-09-15T08:38:42.271Z,25.72
2022-09-15T08:41:17.451Z,25.69
2022-09-15T08:43:53.486Z,25.69
2022-09-15T08:46:30.724Z,25.71
2022-09-15T08:49:08.050Z,25.68
2022-09-15T08:51:44.991Z,25.74
2022-09-15T08:54:20.516Z,25.86
2022-09-15T08:56:48.989Z,25.91
2022-09-15T08:59:18.250Z,26.14
2022-09-15T09:02:01.238Z,26.31
2022-09-15T09:04:46.231Z,26.40
2022-09-15T09:07:30.411Z,26.52
2022-09-15T09:10:11.289Z,26.72
2022-09-15T09:13:01.970Z,26.77
2022-09-15T09:15:47.758Z,26.58
2022-09-15T09:18:44.075Z,26.48
2022-09-15T09:21:23.697Z,26.36
2022-09-15T09:23:59.791Z,26.28
2022-09-15T09:26:31.532Z,26.20
2022-09-15T09:29:00.951Z,26.12
2022-09-15T09:31:29.309Z,26.06
2022-09-15T09:34:06.130Z,26.01
2022-09-15T09:36:35.250Z,25.99
2022-09-15T09:39:03.110Z,25.95
2022-09-15T09:41:31.672Z,25.96
2022-09-15T09:43:58.811Z,26.04
2022-09-15T09:46:25.995Z,26.13
2022-09-15T09:48:59.852Z,26.21
2022-09-15T09:51:35.535Z,26.21
2022-09-15T09:54:11.513Z,26.23
2022-09-15T09:56:39.611Z,26.23
2022-09-15T09:59:39.673Z,26.25
2022-09-15T10:02:18.924Z,26.27
2022-09-15T10:04:48.327Z,26.35
2022-09-15T10:07:20.254Z,26.35
2022-09-15T10:10:00.000Z,26.54
2022-09-15T10:12:32.315Z,26.53
2022-09-15T10:15:02.993Z,26.58
2022-09-15T10:17:42.694Z,26.70
2022-09-15T10:20:27.891Z,26.79
2022-09-15T10:23:06.071Z,26.92
2022-09-15T10:25:57.590Z,27.05
2022-09-15T10:28:25.409Z,27.15
2022-09-15T10:31:03.211Z,27.25
2022-09-15T10:33:33.133Z,27.55
2022-09-15T10:36:05.292Z,27.51
2022-09-15T10:38:41.273Z,27.46
2022-09-15T10:41:26.192Z,27.46
2022-09-15T10:44:11.952Z,27.49
2022-09-15T10:46:50.774Z,27.43
2022-09-15T10:49:33.632Z,27.32
2022-09-15T10:52:15.259Z,27.20
2022-09-15T10:55:06.813Z,27.14
2022-09-15T10:57:58.670Z,27.04
2022-09-15T11:00:35.199Z,27.04
2022-09-15T11:03:40.629Z,27.03
2022-09-15T11:06:20.779Z,26.96
2022-09-15T11:09:13.682Z,26.88
2022-09-15T11:11:59.876Z,26.81
2022-09-15T11:14:42.813Z,26.81
2022-09-15T11:17:27.183Z,26.83
2022-09-15T11:20:08.804Z,26.72
2022-09-15T11:22:47.307Z,26.75
2022-09-15T11:25:23.144Z,26.81
2022-09-15T11:27:59.074Z,26.88
2022-09-15T11:30:35.276Z,26.89
2022-09-15T11:33:07.293Z,26.88
2022-09-15T11:35:45.376Z,26.94
2022-09-15T11:38:28.371Z,26.95
2022-09-15T11:41:05.811Z,26.95
2022-09-15T11:43:42.919Z,26.95
2022-09-15T11:46:19.043Z,26.97
2022-09-15T11:48:56.318Z,27.01
2022-09-15T11:51:28.416Z,27.02
2022-09-15T11:54:06.269Z,27.07
2022-09-15T11:56:42.330Z,27.17
2022-09-15T11:59:21.177Z,27.17
2022-09-15T12:01:57.630Z,27.18
2022-09-15T12:04:31.472Z,27.17
2022-09-15T12:07:13.854Z,27.23
2022-09-15T12:09:42.191Z,27.21
2022-09-15T12:12:16.601Z,27.21
2022-09-15T12:14:48.001Z,27.19
2022-09-15T12:17:25.730Z,27.19
2022-09-15T12:20:01.462Z,27.07
2022-09-15T12:22:40.982Z,27.04
2022-09-15T12:25:17.323Z,27.02
2022-09-15T12:27:44.883Z,26.94
2022-09-15T12:30:41.302Z,26.84
2022-09-15T12:33:43.804Z,26.80
2022-09-15T12:36:40.001Z,26.76
2022-09-15T12:39:36.899Z,26.66
2022-09-15T12:42:15.022Z,26.58
2022-09-15T12:44:46.328Z,26.54
2022-09-15T12:47:26.643Z,26.52
2022-09-15T12:49:58.221Z,26.50
2022-09-15T12:52:26.741Z,26.49
2022-09-15T12:54:58.809Z,26.48
2022-09-15T12:57:32.202Z,26.51
2022-09-15T13:00:37.989Z,26.48
2022-09-15T13:03:28.781Z,26.51
2022-09-15T13:06:19.685Z,26.61
2022-09-15T13:08:50.025Z,26.61
2022-09-15T13:11:23.943Z,26.48
2022-09-15T13:13:59.083Z,26.55
2022-09-15T13:16:32.743Z,26.64
2022-09-15T13:19:12.190Z,26.75
2022-09-15T13:21:45.204Z,26.82
2022-09-15T13:24:24.024Z,26.90
2022-09-15T13:26:56.164Z,26.94
2022-09-15T13:29:28.704Z,26.97
2022-09-15T13:32:11.276Z,27.03
2022-09-15T13:35:15.566Z,27.10
2022-09-15T13:38:21.206Z,27.13
2022-09-15T13:41:22.262Z,27.12
2022-09-15T13:44:27.823Z,27.07
2022-09-15T13:47:12.495Z,27.05
2022-09-15T13:50:11.363Z,27.01
2022-09-15T13:53:18.264Z,26.95
2022-09-15T13:55:45.806Z,26.60
2022-09-15T14:01:07.622Z,26.91
2022-09-15T14:03:43.273Z,26.86
2022-09-15T14:06:21.144Z,26.89
2022-09-15T14:08:53.865Z,26.88
2022-09-15T14:11:33.544Z,26.88
2022-09-15T14:14:00.994Z,26.91
2022-09-15T14:16:34.683Z,26.90
2022-09-15T14:19:04.166Z,26.97
2022-09-15T14:21:34.364Z,26.98
2022-09-15T14:24:05.023Z,27.03
2022-09-15T14:26:36.001Z,26.99
2022-09-15T14:29:06.008Z,26.97
2022-09-15T14:31:36.394Z,26.99
2022-09-15T14:34:07.482Z,26.98
2022-09-15T14:36:36.223Z,26.99
2022-09-15T14:39:20.583Z,26.90
2022-09-15T14:41:48.889Z,26.95
2022-09-15T14:47:20.813Z,26.87
2022-09-15T14:49:48.664Z,26.98
2022-09-15T14:52:25.995Z,27.00
2022-09-15T14:54:58.303Z,27.01
2022-09-15T14:57:31.244Z,26.99
2022-09-15T15:00:07.024Z,26.95
2022-09-15T15:02:54.082Z,26.89
2022-09-15T15:05:27.925Z,26.93
2022-09-15T15:07:58.024Z,26.87
2022-09-15T15:10:35.500Z,26.82
2022-09-15T15:13:09.463Z,26.76
2022-09-15T15:15:39.063Z,26.74
2022-09-15T15:18:37.534Z,26.69
2022-09-15T15:21:05.193Z,26.64
2022-09-15T15:23:33.922Z,26.64
2022-09-15T15:26:32.916Z,26.63
2022-09-15T15:29:00.881Z,26.56
2022-09-15T15:31:29.756Z,26.58
2022-09-15T15:33:59.530Z,26.51
2022-09-15T15:36:29.520Z,26.52
2022-09-15T15:39:00.956Z,26.45
2022-09-15T15:41:30.854Z,26.35
2022-09-15T15:44:03.693Z,26.34
2022-09-15T15:46:52.936Z,26.35
2022-09-15T15:49:24.155Z,26.28
2022-09-15T15:51:53.535Z,26.23
2022-09-15T15:54:22.321Z,26.20
2022-09-15T15:56:49.677Z,26.21
2022-09-15T15:59:17.716Z,26.23
2022-09-15T16:01:49.352Z,25.99
2022-09-15T16:04:16.615Z,26.02
2022-09-15T16:06:45.981Z,26.20
2022-09-15T16:09:16.034Z,26.17
2022-09-15T16:11:44.661Z,26.22
2022-09-15T16:14:12.856Z,26.16
2022-09-15T16:16:40.091Z,26.05
2022-09-15T16:19:07.278Z,26.17
2022-09-15T16:21:38.676Z,26.23
2022-09-15T16:24:10.617Z,26.20
2022-09-15T16:26:39.335Z,26.19
2022-09-15T16:29:07.942Z,26.18
2022-09-15T16:31:35.514Z,26.16
2022-09-15T16:34:06.242Z,26.15
2022-09-15T16:36:35.494Z,25.96
2022-09-15T16:39:02.940Z,26.07
2022-09-15T16:41:30.033Z,26.06
2022-09-15T16:43:57.138Z,26.10
2022-09-15T16:46:25.837Z,26.05
2022-09-15T16:48:53.154Z,26.01
2022-09-15T16:51:28.837Z,25.98
2022-09-15T16:53:58.352Z,25.98
2022-09-15T16:56:25.736Z,25.95
2022-09-15T16:58:57.293Z,25.94
2022-09-15T17:01:28.709Z,25.94
2022-09-15T17:03:55.910Z,25.89
2022-09-15T17:06:23.074Z,25.84
2022-09-15T17:08:50.175Z,25.81
2022-09-15T17:11:19.893Z,25.73
2022-09-15T17:13:47.487Z,25.71
2022-09-15T17:16:18.410Z,25.69
2022-09-15T17:18:47.915Z,25.69
2022-09-15T17:21:17.083Z,25.68
2022-09-15T17:23:46.215Z,25.65
2022-09-15T17:26:15.400Z,25.65
2022-09-15T17:28:42.454Z,25.62
2022-09-15T17:31:14.801Z,25.61
2022-09-15T17:33:42.894Z,25.61
2022-09-15T17:36:11.657Z,25.60
2022-09-15T17:38:39.342Z,25.58
2022-09-15T17:41:06.935Z,25.58
2022-09-15T17:43:34.076Z,25.59
2022-09-15T17:46:01.275Z,25.57
2022-09-15T17:48:28.437Z,25.56
2022-09-15T17:50:55.557Z,25.57
2022-09-15T17:53:25.614Z,25.63
2022-09-15T17:55:54.656Z,25.59
2022-09-15T17:58:23.095Z,25.61
2022-09-15T18:00:50.933Z,25.59
2022-09-15T18:03:24.673Z,25.59
2022-09-15T18:05:52.452Z,25.57
2022-09-15T18:08:19.687Z,25.57
2022-09-15T18:10:48.925Z,25.61
2022-09-15T18:13:18.810Z,25.63
2022-09-15T18:15:47.871Z,25.62
2022-09-15T18:18:17.361Z,25.65
2022-09-15T18:20:44.526Z,25.64
2022-09-15T18:23:17.242Z,25.63
2022-09-15T18:25:46.141Z,25.63
2022-09-15T18:28:16.121Z,25.60
2022-09-15T18:30:46.219Z,25.61
2022-09-15T18:33:16.763Z,25.58
2022-09-15T18:35:44.355Z,25.54
2022-09-15T18:38:12.041Z,25.54
2022-09-15T18:40:43.846Z,25.48
2022-09-15T18:43:11.422Z,25.46
2022-09-15T18:45:40.782Z,25.43
2022-09-15T18:48:11.992Z,25.38
2022-09-15T18:50:41.987Z,25.34
2022-09-15T18:53:09.723Z,25.31
2022-09-15T18:55:37.065Z,25.29
2022-09-15T18:58:04.640Z,25.26
2022-09-15T19:00:31.981Z,25.26
2022-09-15T19:03:02.460Z,25.21
2022-09-15T19:05:31.021Z,25.21
2022-09-15T19:07:58.340Z,25.20
2022-09-15T19:10:26.230Z,25.14
2022-09-15T19:12:53.401Z,25.11
2022-09-15T19:15:23.767Z,25.10
2022-09-15T19:17:51.465Z,25.09
2022-09-15T19:20:20.140Z,25.08
2022-09-15T19:22:47.615Z,25.06
2022-09-15T19:25:14.990Z,25.02
2022-09-15T19:27:43.749Z,24.98
2022-09-15T19:30:12.742Z,24.93
2022-09-15T19:32:40.982Z,25.17
2022-09-15T19:35:09.003Z,25.25
2022-09-15T19:37:40.200Z,25.22
2022-09-15T19:40:11.133Z,25.23
2022-09-15T19:42:40.461Z,25.25
2022-09-15T19:45:09.602Z,25.22
2022-09-15T19:47:37.741Z,25.30
2022-09-15T19:50:08.561Z,25.29
2022-09-15T19:52:37.261Z,25.41
2022-09-15T19:55:06.021Z,25.40
2022-09-15T19:57:33.241Z,25.42
2022-09-15T20:00:00.468Z,25.43
2022-09-15T20:02:27.687Z,25.45
2022-09-15T20:07:41.335Z,25.40
2022-09-15T20:10:08.498Z,25.34
2022-09-15T20:12:35.593Z,25.37
2022-09-15T20:15:02.653Z,25.36
2022-09-15T20:17:29.804Z,25.35
2022-09-15T20:19:57.551Z,25.43
2022-09-15T20:22:25.015Z,25.44
2022-09-15T20:24:53.662Z,25.43
2022-09-15T20:27:20.701Z,25.36
2022-09-15T20:29:47.795Z,25.38
2022-09-15T20:32:14.893Z,25.30
2022-09-15T20:34:41.856Z,25.27
2022-09-15T20:37:09.062Z,25.24
2022-09-15T20:39:36.236Z,25.32
2022-09-15T20:42:05.213Z,25.28
2022-09-15T20:44:32.402Z,25.21
2022-09-15T20:46:59.509Z,25.13
2022-09-15T20:49:26.701Z,25.08
2022-09-15T20:51:53.820Z,25.05
2022-09-15T20:54:21.321Z,25.05
2022-09-15T20:56:48.440Z,24.98
2022-09-15T20:59:17.025Z,24.96
2022-09-15T21:01:44.122Z,24.98
2022-09-15T21:04:12.041Z,24.98
2022-09-15T21:06:39.602Z,24.95
2022-09-15T21:09:07.623Z,25.02
2022-09-15T21:11:35.841Z,24.92
2022-09-15T21:14:03.667Z,24.88
2022-09-15T21:16:32.743Z,24.77
2022-09-15T21:18:59.860Z,24.72
2022-09-15T21:21:30.181Z,24.71
2022-09-15T21:24:01.061Z,24.61
2022-09-15T21:26:30.401Z,24.61
2022-09-15T21:28:57.720Z,24.59
2022-09-15T21:31:27.736Z,24.63
2022-09-15T21:33:58.049Z,24.64
2022-09-15T21:36:27.441Z,24.66
2022-09-15T21:38:57.082Z,24.62
2022-09-15T21:41:26.821Z,24.65
2022-09-15T21:43:54.940Z,24.60
2022-09-15T21:46:24.189Z,24.60
2022-09-15T21:48:51.709Z,24.58
2022-09-15T21:51:24.909Z,24.59
2022-09-15T21:53:53.203Z,24.56
2022-09-15T21:56:22.128Z,24.53
2022-09-15T21:58:49.620Z,24.50
2022-09-15T22:01:19.269Z,24.49
2022-09-15T22:03:49.537Z,24.44
2022-09-15T22:06:17.560Z,24.41
2022-09-15T22:08:46.495Z,24.41
2022-09-15T22:11:14.520Z,24.39
2022-09-15T22:13:43.615Z,24.39
2022-09-15T22:16:13.910Z,24.39
2022-09-15T22:18:42.140Z,24.37
2022-09-15T22:21:11.702Z,24.39
2022-09-15T22:23:40.098Z,24.39
2022-09-15T22:26:11.911Z,24.39
2022-09-15T22:28:39.312Z,24.40
2022-09-15T22:31:08.811Z,24.39
2022-09-15T22:33:37.264Z,24.35
2022-09-15T22:36:04.951Z,24.35
2022-09-15T22:38:32.049Z,24.31
2022-09-15T22:41:04.710Z,24.28
2022-09-15T22:43:33.473Z,24.25
2022-09-15T22:46:00.770Z,24.21
2022-09-15T22:48:28.350Z,24.17
2022-09-15T22:50:56.225Z,24.14
2022-09-15T22:53:23.440Z,24.13
2022-09-15T22:55:50.631Z,24.11
2022-09-15T22:58:18.194Z,24.07
2022-09-15T23:00:47.908Z,24.07
2022-09-15T23:03:15.130Z,24.08
2022-09-15T23:05:42.292Z,24.10
2022-09-15T23:08:09.712Z,24.09
2022-09-15T23:10:36.931Z,24.08
2022-09-15T23:13:04.059Z,24.10
2022-09-15T23:15:31.193Z,24.09
2022-09-15T23:17:59.963Z,24.11
2022-09-15T23:20:27.190Z,24.11
2022-09-15T23:22:54.391Z,24.13
2022-09-15T23:25:21.952Z,24.13
2022-09-15T23:27:49.212Z,24.10
2022-09-15T23:30:16.771Z,24.08
2022-09-15T23:32:43.942Z,24.07
2022-09-15T23:35:12.653Z,24.08
2022-09-15T23:37:39.772Z,24.09
2022-09-15T23:40:07.411Z,24.12
2022-09-15T23:42:34.691Z,24.11
2022-09-15T23:45:01.971Z,24.09
2022-09-15T23:47:29.210Z,24.09
2022-09-15T23:49:56.391Z,24.06
2022-09-15T23:52:24.910Z,24.05
2022-09-15T23:54:52.030Z,24.02
2022-09-15T23:57:19.132Z,24.02
2022-09-15T23:59:46.233Z,24.03
